createdAt,value
2022-10-21T00:02:52.589Z,5.63
2022-10-21T00:05:54.913Z,5.15
2022-10-21T00:08:57.102Z,5.70
2022-10-21T00:11:59.420Z,5.93
2022-10-21T00:15:07.069Z,5.63
2022-10-21T00:18:09.300Z,5.53
2022-10-21T00:21:16.999Z,5.25
2022-10-21T00:24:19.150Z,6.00
2022-10-21T00:27:21.299Z,5.78
2022-10-21T00:30:23.516Z,5.60
2022-10-21T00:33:26.966Z,5.68
2022-10-21T00:36:29.224Z,4.93
2022-10-21T00:39:31.422Z,4.80
2022-10-21T00:42:39.646Z,5.65
2022-10-21T00:45:45.813Z,5.45
2022-10-21T00:48:55.686Z,5.40
2022-10-21T00:52:01.414Z,5.13
2022-10-21T00:55:05.361Z,5.03
2022-10-21T00:58:08.272Z,5.13
2022-10-21T01:01:10.537Z,4.70
2022-10-21T01:04:12.760Z,5.10
2022-10-21T01:07:14.927Z,5.07
2022-10-21T01:10:17.745Z,4.97
2022-10-21T01:14:08.898Z,5.28
2022-10-21T01:17:40.289Z,5.28
2022-10-21T01:21:16.501Z,4.90
2022-10-21T01:24:37.437Z,5.07
2022-10-21T01:28:14.697Z,5.40
2022-10-21T01:31:43.665Z,5.15
2022-10-21T01:34:55.925Z,4.88
2022-10-21T01:38:25.362Z,5.00
2022-10-21T01:41:35.932Z,5.22
2022-10-21T01:44:52.608Z,5.27
2022-10-21T01:47:58.641Z,5.18
2022-10-21T01:51:06.945Z,5.28
2022-10-21T01:54:32.687Z,4.80
2022-10-21T01:57:41.344Z,5.35
2022-10-21T02:00:45.011Z,5.03
2022-10-21T02:03:52.736Z,5.03
2022-10-21T02:06:55.089Z,5.18
2022-10-21T02:09:57.300Z,5.03
2022-10-21T02:13:02.489Z,5.25
2022-10-21T02:16:09.395Z,5.00
2022-10-21T02:19:15.993Z,5.30
2022-10-21T02:22:22.372Z,5.07
2022-10-21T02:25:29.456Z,4.80
2022-10-21T02:28:32.771Z,4.80
2022-10-21T02:31:55.253Z,4.57
2022-10-21T02:35:19.032Z,4.95
2022-10-21T02:38:23.959Z,4.72
2022-10-21T02:41:29.770Z,4.85
2022-10-21T02:44:32.005Z,5.00
2022-10-21T02:47:37.445Z,5.03
2022-10-21T02:50:39.977Z,4.70
2022-10-21T02:53:42.605Z,5.07
2022-10-21T02:56:44.787Z,4.50
2022-10-21T02:59:46.969Z,5.13
2022-10-21T03:02:49.155Z,5.00
2022-10-21T03:05:51.403Z,4.43
2022-10-21T03:08:53.669Z,4.95
2022-10-21T03:11:55.929Z,4.60
2022-10-21T03:14:58.086Z,4.38
2022-10-21T03:18:00.335Z,4.87
2022-10-21T03:21:02.864Z,5.05
2022-10-21T03:24:10.917Z,5.05
2022-10-21T03:27:21.926Z,4.85
2022-10-21T03:30:24.197Z,4.75
2022-10-21T03:33:26.457Z,4.33
2022-10-21T03:36:28.592Z,4.57
2022-10-21T03:39:30.813Z,4.43
2022-10-21T03:42:33.029Z,4.75
2022-10-21T03:45:35.183Z,4.65
2022-10-21T03:48:37.331Z,4.53
2022-10-21T03:51:39.478Z,4.10
2022-10-21T03:54:41.621Z,4.78
2022-10-21T03:57:43.826Z,4.38
2022-10-21T04:00:46.182Z,4.25
2022-10-21T04:03:48.345Z,4.57
2022-10-21T04:06:50.584Z,4.75
2022-10-21T04:09:52.754Z,4.55
2022-10-21T04:12:54.922Z,4.45
2022-10-21T04:15:59.422Z,4.30
2022-10-21T04:19:02.151Z,4.53
2022-10-21T04:22:04.317Z,4.38
2022-10-21T04:25:06.714Z,4.40
2022-10-21T04:28:08.886Z,4.38
2022-10-21T04:31:11.093Z,4.55
2022-10-21T04:34:13.354Z,4.63
2022-10-21T04:37:15.506Z,4.45
2022-10-21T04:40:17.777Z,4.13
2022-10-21T04:43:19.940Z,4.45
2022-10-21T04:46:22.228Z,4.50
2022-10-21T04:49:24.388Z,4.40
2022-10-21T04:52:26.574Z,3.85
2022-10-21T04:55:28.731Z,4.55
2022-10-21T04:58:31.326Z,4.70
2022-10-21T05:01:33.623Z,4.50
2022-10-21T05:04:35.833Z,4.20
2022-10-21T05:07:38.146Z,4.30
2022-10-21T05:10:40.373Z,4.35
2022-10-21T05:13:42.608Z,4.35
2022-10-21T05:16:44.770Z,4.50
2022-10-21T05:19:46.915Z,4.27
2022-10-21T05:22:49.524Z,4.07
2022-10-21T05:25:51.952Z,4.55
2022-10-21T05:28:54.139Z,4.90
2022-10-21T05:31:56.363Z,4.53
2022-10-21T05:34:58.514Z,4.30
2022-10-21T05:38:00.734Z,4.38
2022-10-21T05:41:03.552Z,4.30
2022-10-21T05:44:06.006Z,4.75
2022-10-21T05:47:08.168Z,4.63
2022-10-21T05:50:12.290Z,4.40
2022-10-21T05:53:14.689Z,4.50
2022-10-21T05:56:16.870Z,7.05
2022-10-21T05:59:19.052Z,6.45
2022-10-21T06:02:21.258Z,6.20
2022-10-21T06:05:24.505Z,6.70
2022-10-21T06:08:28.180Z,6.40
2022-10-21T06:11:30.480Z,6.30
2022-10-21T06:14:33.013Z,6.28
2022-10-21T06:17:35.506Z,6.47
2022-10-21T06:20:37.710Z,6.40
2022-10-21T06:23:40.761Z,6.22
2022-10-21T06:26:43.009Z,6.28
2022-10-21T06:29:45.204Z,6.50
2022-10-21T06:32:47.383Z,6.43
2022-10-21T06:35:49.593Z,6.30
2022-10-21T06:38:51.881Z,5.90
2022-10-21T06:41:54.041Z,5.68
2022-10-21T06:45:16.070Z,5.60
2022-10-21T06:48:18.704Z,5.90
2022-10-21T06:51:23.135Z,5.57
2022-10-21T06:54:25.624Z,5.60
2022-10-21T06:57:27.840Z,6.05
2022-10-21T07:03:40.052Z,5.78
2022-10-21T07:06:42.388Z,5.27
2022-10-21T07:09:45.190Z,5.78
2022-10-21T07:12:47.473Z,5.53
2022-10-21T07:16:07.776Z,5.80
2022-10-21T07:19:14.738Z,5.60
2022-10-21T07:22:17.938Z,5.53
2022-10-21T07:25:20.350Z,5.82
2022-10-21T07:28:23.493Z,5.95
2022-10-21T07:31:28.687Z,5.82
2022-10-21T07:34:32.012Z,6.03
2022-10-21T07:37:34.792Z,5.97
2022-10-21T07:40:41.830Z,5.45
2022-10-21T07:43:47.764Z,5.57
2022-10-21T07:46:50.469Z,5.53
2022-10-21T07:49:53.332Z,6.32
2022-10-21T07:53:02.199Z,5.10
2022-10-21T07:56:15.212Z,5.18
2022-10-21T07:59:18.872Z,5.55
2022-10-21T08:02:21.104Z,5.43
2022-10-21T08:05:23.841Z,5.65
2022-10-21T08:08:28.454Z,4.87
2022-10-21T08:11:32.700Z,5.78
2022-10-21T08:14:34.887Z,4.82
2022-10-21T08:17:37.040Z,5.43
2022-10-21T08:20:44.424Z,4.60
2022-10-21T08:23:46.635Z,5.83
2022-10-21T08:26:49.605Z,4.75
2022-10-21T08:29:51.877Z,5.68
2022-10-21T08:32:54.019Z,5.30
2022-10-21T08:35:56.181Z,5.53
2022-10-21T08:39:01.758Z,6.37
2022-10-21T08:42:06.742Z,4.45
2022-10-21T08:45:32.729Z,4.20
2022-10-21T08:48:44.901Z,3.95
2022-10-21T08:51:54.069Z,3.85
2022-10-21T08:55:06.635Z,4.10
2022-10-21T08:58:27.043Z,3.90
2022-10-21T09:01:40.693Z,4.03
2022-10-21T09:04:55.969Z,3.97
2022-10-21T09:08:07.007Z,3.88
2022-10-21T09:11:29.072Z,3.50
2022-10-21T09:17:55.340Z,3.80
2022-10-21T09:21:15.647Z,3.63
2022-10-21T09:24:31.081Z,3.47
2022-10-21T09:27:51.257Z,3.43
2022-10-21T09:31:00.113Z,3.30
2022-10-21T09:34:07.238Z,3.28
2022-10-21T09:37:18.541Z,3.70
2022-10-21T09:40:28.556Z,3.25
2022-10-21T09:43:31.313Z,3.17
2022-10-21T09:46:35.062Z,3.10
2022-10-21T09:53:10.151Z,2.83
2022-10-21T09:56:20.616Z,2.97
2022-10-21T09:59:23.655Z,2.73
2022-10-21T10:02:34.113Z,3.00
2022-10-21T10:05:48.575Z,2.67
2022-10-21T10:08:51.128Z,3.63
2022-10-21T10:12:12.169Z,2.80
2022-10-21T10:15:32.639Z,2.50
2022-10-21T10:18:34.831Z,3.28
2022-10-21T10:21:37.042Z,3.08
2022-10-21T10:24:44.214Z,2.90
2022-10-21T10:28:02.083Z,2.97
2022-10-21T10:31:04.537Z,2.90
2022-10-21T10:34:08.773Z,2.40
2022-10-21T10:37:23.345Z,2.42
2022-10-21T10:40:42.240Z,2.72
2022-10-21T10:43:53.509Z,3.17
2022-10-21T10:47:00.956Z,2.83
2022-10-21T10:50:03.450Z,2.53
2022-10-21T10:53:33.592Z,2.85
2022-10-21T10:56:42.648Z,2.47
2022-10-21T10:59:56.873Z,2.50
2022-10-21T11:03:04.481Z,2.40
2022-10-21T11:06:19.509Z,2.20
2022-10-21T11:09:26.547Z,2.40
2022-10-21T11:12:31.790Z,2.50
2022-10-21T11:15:43.115Z,2.70
2022-10-21T11:18:52.094Z,2.20
2022-10-21T11:21:56.496Z,2.33
2022-10-21T11:25:13.568Z,2.78
2022-10-21T11:28:26.059Z,2.50
2022-10-21T11:32:06.691Z,2.78
2022-10-21T11:35:24.501Z,3.57
2022-10-21T11:38:36.767Z,3.35
2022-10-21T11:41:54.071Z,3.45
2022-10-21T11:45:18.479Z,3.50
2022-10-21T11:48:31.859Z,2.85
2022-10-21T11:51:57.120Z,2.70
2022-10-21T11:55:35.027Z,2.75
2022-10-21T11:58:53.688Z,3.13
2022-10-21T12:02:20.998Z,2.97
2022-10-21T12:05:42.698Z,2.97
2022-10-21T12:08:57.433Z,2.93
2022-10-21T12:12:15.177Z,2.75
2022-10-21T12:15:22.015Z,4.70
2022-10-21T12:18:26.825Z,3.85
2022-10-21T12:21:32.855Z,4.53
2022-10-21T12:24:41.905Z,4.63
2022-10-21T12:28:25.855Z,4.55
2022-10-21T12:31:52.617Z,4.13
2022-10-21T12:34:55.954Z,3.42
2022-10-21T12:37:59.846Z,4.70
2022-10-21T12:41:34.478Z,3.23
2022-10-21T12:44:38.981Z,3.50
2022-10-21T12:47:46.219Z,3.40
2022-10-21T12:51:00.798Z,3.10
2022-10-21T12:54:02.915Z,3.33
2022-10-21T12:57:08.309Z,3.53
2022-10-21T13:03:46.565Z,3.28
2022-10-21T13:06:56.853Z,3.00
2022-10-21T13:09:58.957Z,3.17
2022-10-21T13:13:57.112Z,2.73
2022-10-21T13:17:21.927Z,2.97
2022-10-21T13:20:24.055Z,3.50
2022-10-21T13:23:32.702Z,2.95
2022-10-21T13:26:40.735Z,2.47
2022-10-21T13:29:47.321Z,2.50
2022-10-21T13:33:04.811Z,2.70
2022-10-21T13:36:13.931Z,2.80
2022-10-21T13:39:31.320Z,2.70
2022-10-21T13:42:40.236Z,3.45
2022-10-21T13:45:51.571Z,2.77
2022-10-21T13:48:54.323Z,2.95
2022-10-21T13:51:57.176Z,2.78
2022-10-21T13:55:01.449Z,2.63
2022-10-21T13:58:03.586Z,2.90
2022-10-21T14:01:21.854Z,2.43
2022-10-21T14:04:29.646Z,2.80
2022-10-21T14:07:32.575Z,3.00
2022-10-21T14:10:36.078Z,2.60
2022-10-21T14:13:39.503Z,2.55
2022-10-21T14:16:47.866Z,2.57
2022-10-21T14:20:06.334Z,2.55
2022-10-21T14:23:16.394Z,2.40
2022-10-21T14:26:19.388Z,2.72
2022-10-21T14:29:25.859Z,2.30
2022-10-21T14:32:28.124Z,3.00
2022-10-21T14:35:31.349Z,2.20
2022-10-21T14:38:36.220Z,2.85
2022-10-21T14:41:46.550Z,2.40
2022-10-21T14:44:52.529Z,2.65
2022-10-21T14:48:17.195Z,2.10
2022-10-21T14:51:22.536Z,2.40
2022-10-21T14:54:39.734Z,2.50
2022-10-21T14:57:53.029Z,2.20
2022-10-21T15:00:58.274Z,2.60
2022-10-21T15:04:01.117Z,2.20
2022-10-21T15:07:03.297Z,2.15
2022-10-21T15:10:05.436Z,2.17
2022-10-21T15:13:20.403Z,2.20
2022-10-21T15:16:26.896Z,2.53
2022-10-21T15:19:38.096Z,2.03
2022-10-21T15:22:40.363Z,2.28
2022-10-21T15:25:42.628Z,2.20
2022-10-21T15:28:44.927Z,2.17
2022-10-21T15:31:47.426Z,2.00
2022-10-21T15:34:53.493Z,2.03
2022-10-21T15:37:55.721Z,2.15
2022-10-21T15:40:57.975Z,2.10
2022-10-21T15:44:06.085Z,2.20
2022-10-21T15:47:11.736Z,2.75
2022-10-21T15:50:17.752Z,2.07
2022-10-21T15:53:19.995Z,1.95
2022-10-21T15:56:22.202Z,2.60
2022-10-21T15:59:30.512Z,2.08
2022-10-21T16:02:32.730Z,2.20
2022-10-21T16:05:35.245Z,2.27
2022-10-21T16:08:37.457Z,2.30
2022-10-21T16:11:41.467Z,2.08
2022-10-21T16:14:50.177Z,2.03
2022-10-21T16:17:55.806Z,2.45
2022-10-21T16:20:58.516Z,2.00
2022-10-21T16:24:00.707Z,2.15
2022-10-21T16:27:02.928Z,1.92
2022-10-21T16:30:17.758Z,2.13
2022-10-21T16:33:19.904Z,2.33
2022-10-21T16:36:29.727Z,2.30
2022-10-21T16:39:31.887Z,2.20
2022-10-21T16:42:34.054Z,2.30
2022-10-21T16:45:36.266Z,2.10
2022-10-21T16:48:38.437Z,2.40
2022-10-21T16:51:43.173Z,2.20
2022-10-21T16:54:48.580Z,2.10
2022-10-21T16:57:50.987Z,2.20
2022-10-21T17:00:53.179Z,2.38
2022-10-21T17:03:55.478Z,2.25
2022-10-21T17:07:00.048Z,2.10
2022-10-21T17:10:03.509Z,2.13
2022-10-21T17:13:05.687Z,2.20
2022-10-21T17:16:08.288Z,2.30
2022-10-21T17:19:10.443Z,2.30
2022-10-21T17:22:17.069Z,2.43
2022-10-21T17:25:19.406Z,2.40
2022-10-21T17:28:21.814Z,2.42
2022-10-21T17:31:26.329Z,2.42
2022-10-21T17:34:31.684Z,2.15
2022-10-21T17:37:33.877Z,2.37
2022-10-21T17:40:36.188Z,2.20
2022-10-21T17:43:38.866Z,2.30
2022-10-21T17:46:41.407Z,2.33
2022-10-21T17:49:43.680Z,2.20
2022-10-21T17:52:46.718Z,1.90
2022-10-21T17:56:06.877Z,2.55
2022-10-21T17:59:09.181Z,2.45
2022-10-21T18:02:11.382Z,2.10
2022-10-21T18:05:13.619Z,2.83
2022-10-21T18:08:15.858Z,2.47
2022-10-21T18:11:20.080Z,2.20
2022-10-21T18:14:22.404Z,2.28
2022-10-21T18:17:24.622Z,2.30
2022-10-21T18:20:26.898Z,2.58
2022-10-21T18:23:29.374Z,2.30
2022-10-21T18:26:31.835Z,2.38
2022-10-21T18:29:34.636Z,2.28
2022-10-21T18:32:36.888Z,2.22
2022-10-21T18:35:39.385Z,3.08
2022-10-21T18:38:42.205Z,2.63
2022-10-21T18:41:44.779Z,2.40
2022-10-21T18:44:47.000Z,2.60
2022-10-21T18:47:51.202Z,2.50
2022-10-21T18:50:53.525Z,2.60
2022-10-21T18:53:55.693Z,2.30
2022-10-21T18:56:57.930Z,2.17
2022-10-21T19:00:00.122Z,2.45
2022-10-21T19:03:02.343Z,2.65
2022-10-21T19:06:31.047Z,2.67
2022-10-21T19:09:33.239Z,2.60
2022-10-21T19:12:35.489Z,2.63
2022-10-21T19:15:37.738Z,2.58
2022-10-21T19:18:39.945Z,2.53
2022-10-21T19:21:42.234Z,2.58
2022-10-21T19:24:44.465Z,2.27
2022-10-21T19:27:46.700Z,2.55
2022-10-21T19:30:48.873Z,2.60
2022-10-21T19:33:51.516Z,2.47
2022-10-21T19:36:53.869Z,2.92
2022-10-21T19:39:56.123Z,2.47
2022-10-21T19:42:58.440Z,2.40
2022-10-21T19:46:05.846Z,2.78
2022-10-21T19:49:09.315Z,2.58
2022-10-21T19:52:11.502Z,2.17
2022-10-21T19:55:13.717Z,2.60
2022-10-21T19:58:15.944Z,2.40
2022-10-21T20:01:21.816Z,2.60
2022-10-21T20:04:24.807Z,2.53
2022-10-21T20:07:27.027Z,2.50
2022-10-21T20:10:29.318Z,2.63
2022-10-21T20:13:31.834Z,2.60
2022-10-21T20:16:37.501Z,2.50
2022-10-21T20:19:39.653Z,2.53
2022-10-21T20:22:42.326Z,2.50
2022-10-21T20:25:56.825Z,2.70
2022-10-21T20:29:00.653Z,2.53
2022-10-21T20:32:02.986Z,2.80
2022-10-21T20:35:05.865Z,2.28
2022-10-21T20:38:09.570Z,2.80
2022-10-21T20:41:14.226Z,2.50
2022-10-21T20:44:19.473Z,2.50
2022-10-21T20:47:21.644Z,2.80
2022-10-21T20:50:25.183Z,2.45
2022-10-21T20:53:31.058Z,2.80
2022-10-21T20:56:37.021Z,2.50
2022-10-21T20:59:39.930Z,2.60
2022-10-21T21:02:42.151Z,2.95
2022-10-21T21:05:44.353Z,2.78
2022-10-21T21:08:53.348Z,2.75
2022-10-21T21:12:09.625Z,2.50
2022-10-21T21:15:11.914Z,2.50
2022-10-21T21:18:14.126Z,2.72
2022-10-21T21:21:21.115Z,2.50
2022-10-21T21:24:23.358Z,2.60
2022-10-21T21:27:25.517Z,2.60
2022-10-21T21:30:27.672Z,2.72
2022-10-21T21:33:30.505Z,2.67
2022-10-21T21:36:32.884Z,2.40
2022-10-21T21:39:35.158Z,2.47
2022-10-21T21:42:37.410Z,3.00
2022-10-21T21:45:39.764Z,2.65
2022-10-21T21:48:44.532Z,2.75
2022-10-21T21:51:48.988Z,2.40
2022-10-21T21:54:54.592Z,2.72
2022-10-21T21:57:56.802Z,2.40
2022-10-21T22:01:09.091Z,2.47
2022-10-21T22:04:11.374Z,2.70
2022-10-21T22:07:13.573Z,2.80
2022-10-21T22:10:15.779Z,2.40
2022-10-21T22:13:17.943Z,2.67
2022-10-21T22:16:22.221Z,2.67
2022-10-21T22:19:27.552Z,2.50
2022-10-21T22:22:29.714Z,2.92
2022-10-21T22:25:31.901Z,2.85
2022-10-21T22:28:35.101Z,2.70
2022-10-21T22:31:37.284Z,2.88
2022-10-21T22:34:40.080Z,2.75
2022-10-21T22:37:42.556Z,2.90
2022-10-21T22:40:44.925Z,2.70
2022-10-21T22:43:47.098Z,2.70
2022-10-21T22:46:49.967Z,2.60
2022-10-21T22:49:52.138Z,2.63
2022-10-21T22:52:54.299Z,2.80
2022-10-21T22:55:56.915Z,2.92
2022-10-21T22:58:59.530Z,2.83
2022-10-21T23:02:01.696Z,2.47
2022-10-21T23:05:04.078Z,2.60
2022-10-21T23:08:06.369Z,3.00
2022-10-21T23:11:08.545Z,2.90
2022-10-21T23:14:10.707Z,2.77
2022-10-21T23:17:12.908Z,3.17
2022-10-21T23:20:15.278Z,2.58
2022-10-21T23:23:17.456Z,2.67
2022-10-21T23:26:19.843Z,2.72
2022-10-21T23:29:22.036Z,2.50
2022-10-21T23:32:24.344Z,2.50
2022-10-21T23:35:26.493Z,2.55
2022-10-21T23:38:28.635Z,2.42
2022-10-21T23:41:31.051Z,2.83
2022-10-21T23:44:33.285Z,2.90
2022-10-21T23:47:35.835Z,2.70
2022-10-21T23:50:42.248Z,3.03
2022-10-21T23:53:46.088Z,2.90
2022-10-21T23:56:48.676Z,2.80
2022-10-21T23:59:50.896Z,2.87
